Avioradar koristi kolačiće da bi Vam omogućio jednostavnije i ugodnije korištenje stranice. 

AVIORADAR - Hrvatski zrakoplovni portal

METAR i TAF za zračne luke u Hrvatskoj

[Source: ADDS]
METAR
LDZA 111100Z 23006KT CAVOK 07/01 Q1017 NOSIG =
LDZA 110525Z 1106/1206 25006KT CAVOK TX05/1113Z TNM02/1106Z LDSP 111100Z 22006KT CAVOK 11/M01 Q1017 TEMPO 23007KT =
AMD LDSP 110959Z 1109/1206 03006KT CAVOK TX12/1113Z TN03/1205Z PROB40 TEMPO 1110/1116 23007KT LDDU 111100Z VRB06KT CAVOK 09/M06 Q1015 TEMPO VRB15G25KT =
AMD LDDU 110906Z 1108/1206 02015KT CAVOK TX11/1113Z TN03/1205Z TEMPO 1108/1112 02020G30KT PROB40 TEMPO 1108/1121 VRB15G35KT PROB30 TEMPO 1110/1115 30010KT LDPL 111100Z VRB02KT CAVOK 11/M05 Q1017 NOSIG =
LDPL 110525Z 1106/1206 03009KT 9999 FEW040 TX11/1113Z TNM01/1205Z PROB30 TEMPO 1106/1108 -TSRA FEW030CB SCT040 LDZD 111100Z 23010KT 180V260 CAVOK 10/03 Q1017 NOSIG =
LDZD 110525Z 1106/1206 VRB02KT 9999 FEW035 TX11/1113Z TNM04/1205Z PROB30 TEMPO 1106/1110 -TSRA FEW030CB SCT035 PROB30 TEMPO 1109/1115 30007KT LDRI 111100Z 23007KT CAVOK 11/M06 Q1017 =
LDRI 110525Z 1106/1206 03006KT 9999 SCT045 TX10/1113Z TN02/1205Z LDOS 111100Z 24008KT 9999 FEW033 06/01 Q1016 =
LDOS 110525Z 1106/1206 29010KT 9999 BKN030 TX05/1113Z TNM01/1106Z
TAF
LDZA 110525Z 1106/1206 25006KT CAVOK TX05/1113Z TNM02/1106Z =
AMD LDSP 110959Z 1109/1206 03006KT CAVOK TX12/1113Z TN03/1205Z PROB40 TEMPO 1110/1116 23007KT =
AMD LDDU 110906Z 1108/1206 02015KT CAVOK TX11/1113Z TN03/1205Z TEMPO 1108/1112 02020G30KT PROB40 TEMPO 1108/1121 VRB15G35KT PROB30 TEMPO 1110/1115 30010KT =
LDPL 110525Z 1106/1206 03009KT 9999 FEW040 TX11/1113Z TNM01/1205Z PROB30 TEMPO 1106/1108 -TSRA FEW030CB SCT040 =
LDZD 110525Z 1106/1206 VRB02KT 9999 FEW035 TX11/1113Z TNM04/1205Z PROB30 TEMPO 1106/1110 -TSRA FEW030CB SCT035 PROB30 TEMPO 1109/1115 30007KT =
LDRI 110525Z 1106/1206 03006KT 9999 SCT045 TX10/1113Z TN02/1205Z =
LDOS 110525Z 1106/1206 29010KT 9999 BKN030 TX05/1113Z TNM01/1106Z =
SR / SS: 06:26 / 15:11 UTC (Zagreb 2018-12-11)